sensor_id;sensor_type;location;lat;lon;timestamp;pressure;altitude;pressure_sealevel;temperature;humidity
56831;BME280;42713;42.676;23.352;2022-12-07T00:01:40;94757.63;;;6.46;75.65
56831;BME280;42713;42.676;23.352;2022-12-07T00:04:07;94768.63;;;6.48;75.27
56831;BME280;42713;42.676;23.352;2022-12-07T00:06:44;94766.19;;;6.47;75.63
56831;BME280;42713;42.676;23.352;2022-12-07T00:09:16;94757.03;;;6.44;75.42
56831;BME280;42713;42.676;23.352;2022-12-07T00:11:43;94767.59;;;6.49;75.65
56831;BME280;42713;42.676;23.352;2022-12-07T00:14:13;94759.78;;;6.49;75.70
56831;BME280;42713;42.676;23.352;2022-12-07T00:16:40;94755.19;;;6.51;75.32
56831;BME280;42713;42.676;23.352;2022-12-07T00:19:05;94754.38;;;6.51;75.79
56831;BME280;42713;42.676;23.352;2022-12-07T00:21:34;94755.53;;;6.55;75.42
56831;BME280;42713;42.676;23.352;2022-12-07T00:24:00;94760.75;;;6.55;74.89
56831;BME280;42713;42.676;23.352;2022-12-07T00:26:32;94748.38;;;6.50;74.66
56831;BME280;42713;42.676;23.352;2022-12-07T00:29:00;94753.59;;;6.50;75.38
56831;BME280;42713;42.676;23.352;2022-12-07T00:31:29;94756.97;;;6.51;75.35
56831;BME280;42713;42.676;23.352;2022-12-07T00:33:56;94751.53;;;6.52;75.82
56831;BME280;42713;42.676;23.352;2022-12-07T00:36:23;94766.38;;;6.52;75.40
56831;BME280;42713;42.676;23.352;2022-12-07T00:38:49;94767.38;;;6.51;75.64
56831;BME280;42713;42.676;23.352;2022-12-07T00:41:17;94763.78;;;6.52;75.02
56831;BME280;42713;42.676;23.352;2022-12-07T00:43:44;94761.59;;;6.49;75.43
56831;BME280;42713;42.676;23.352;2022-12-07T00:46:11;94756.97;;;6.51;75.06
56831;BME280;42713;42.676;23.352;2022-12-07T00:48:37;94762.41;;;6.49;75.40
56831;BME280;42713;42.676;23.352;2022-12-07T00:51:04;94760.81;;;6.48;75.42
56831;BME280;42713;42.676;23.352;2022-12-07T00:53:30;94759.22;;;6.47;76.22
56831;BME280;42713;42.676;23.352;2022-12-07T00:55:55;94750.59;;;6.47;75.61
56831;BME280;42713;42.676;23.352;2022-12-07T00:58:22;94755.19;;;6.51;75.67
56831;BME280;42713;42.676;23.352;2022-12-07T01:00:47;94746.19;;;6.47;74.99
56831;BME280;42713;42.676;23.352;2022-12-07T01:03:14;94746.97;;;6.48;75.69
56831;BME280;42713;42.676;23.352;2022-12-07T01:05:48;94748.81;;;6.47;75.91
56831;BME280;42713;42.676;23.352;2022-12-07T01:08:14;94742.22;;;6.45;75.59
56831;BME280;42713;42.676;23.352;2022-12-07T01:10:39;94747.06;;;6.41;75.71
56831;BME280;42713;42.676;23.352;2022-12-07T01:13:07;94747.06;;;6.41;76.00
56831;BME280;42713;42.676;23.352;2022-12-07T01:15:33;94747.06;;;6.41;76.21
56831;BME280;42713;42.676;23.352;2022-12-07T01:17:58;94751.25;;;6.42;75.87
56831;BME280;42713;42.676;23.352;2022-12-07T01:20:23;94744.84;;;6.45;75.68
56831;BME280;42713;42.676;23.352;2022-12-07T01:22:49;94736.22;;;6.44;75.76
56831;BME280;42713;42.676;23.352;2022-12-07T01:25:14;94732.03;;;6.43;75.73
56831;BME280;42713;42.676;23.352;2022-12-07T01:27:40;94735.06;;;6.40;76.01
56831;BME280;42713;42.676;23.352;2022-12-07T01:30:06;94731.06;;;6.37;76.05
56831;BME280;42713;42.676;23.352;2022-12-07T01:32:33;94740.69;;;6.37;76.11
56831;BME280;42713;42.676;23.352;2022-12-07T01:34:59;94736.50;;;6.36;75.87
56831;BME280;42713;42.676;23.352;2022-12-07T01:37:24;94729.13;;;6.33;75.79
56831;BME280;42713;42.676;23.352;2022-12-07T01:39:51;94732.09;;;6.36;75.65
56831;BME280;42713;42.676;23.352;2022-12-07T01:42:17;94735.50;;;6.37;75.43
56831;BME280;42713;42.676;23.352;2022-12-07T01:47:46;94738.75;;;6.32;76.18
56831;BME280;42713;42.676;23.352;2022-12-07T01:50:12;94729.13;;;6.33;75.60
56831;BME280;42713;42.676;23.352;2022-12-07T01:52:39;94732.75;;;6.32;75.72
56831;BME280;42713;42.676;23.352;2022-12-07T01:55:09;94722.53;;;6.30;76.37
56831;BME280;42713;42.676;23.352;2022-12-07T01:57:43;94715.97;;;6.28;76.50
56831;BME280;42713;42.676;23.352;2022-12-07T02:00:11;94726.78;;;6.25;76.19
56831;BME280;42713;42.676;23.352;2022-12-07T02:02:41;94715.38;;;6.26;76.49
56831;BME280;42713;42.676;23.352;2022-12-07T02:05:09;94705.56;;;6.28;76.13
56831;BME280;42713;42.676;23.352;2022-12-07T02:07:36;94705.34;;;6.29;75.84
56831;BME280;42713;42.676;23.352;2022-12-07T02:10:18;94704.56;;;6.29;75.98
56831;BME280;42713;42.676;23.352;2022-12-07T02:12:47;94718.72;;;6.33;76.34
56831;BME280;42713;42.676;23.352;2022-12-07T02:15:14;94716.91;;;6.33;76.80
56831;BME280;42713;42.676;23.352;2022-12-07T02:17:47;94721.31;;;6.33;76.61
56831;BME280;42713;42.676;23.352;2022-12-07T02:20:30;94715.75;;;6.29;76.35
56831;BME280;42713;42.676;23.352;2022-12-07T02:23:21;94718.16;;;6.31;76.85
56831;BME280;42713;42.676;23.352;2022-12-07T02:31:16;94708.31;;;6.33;76.44
56831;BME280;42713;42.676;23.352;2022-12-07T02:33:50;94702.69;;;6.36;76.01
56831;BME280;42713;42.676;23.352;2022-12-07T02:36:21;94694.28;;;6.34;76.31
56831;BME280;42713;42.676;23.352;2022-12-07T02:39:00;94698.72;;;6.33;76.67
56831;BME280;42713;42.676;23.352;2022-12-07T02:41:36;94700.88;;;6.36;76.78
56831;BME280;42713;42.676;23.352;2022-12-07T02:44:12;94698.47;;;6.35;76.17
56831;BME280;42713;42.676;23.352;2022-12-07T02:46:46;94710.72;;;6.34;76.75
56831;BME280;42713;42.676;23.352;2022-12-07T02:49:14;94705.69;;;6.33;76.11
56831;BME280;42713;42.676;23.352;2022-12-07T02:51:44;94704.34;;;6.30;76.08
56831;BME280;42713;42.676;23.352;2022-12-07T02:54:17;94689.97;;;6.28;76.07
56831;BME280;42713;42.676;23.352;2022-12-07T03:01:51;94689.16;;;6.27;75.99
56831;BME280;42713;42.676;23.352;2022-12-07T03:04:49;94693.22;;;6.23;76.86
56831;BME280;42713;42.676;23.352;2022-12-07T03:07:45;94687.19;;;6.22;76.83
56831;BME280;42713;42.676;23.352;2022-12-07T03:12:47;94678.25;;;6.18;75.98
56831;BME280;42713;42.676;23.352;2022-12-07T03:15:22;94676.88;;;6.16;76.69
56831;BME280;42713;42.676;23.352;2022-12-07T03:17:52;94676.53;;;6.12;76.74
56831;BME280;42713;42.676;23.352;2022-12-07T03:20:22;94678.31;;;6.12;76.72
56831;BME280;42713;42.676;23.352;2022-12-07T03:22:49;94671.88;;;6.14;76.87
56831;BME280;42713;42.676;23.352;2022-12-07T03:25:17;94673.34;;;6.10;76.83
56831;BME280;42713;42.676;23.352;2022-12-07T03:27:57;94672.09;;;6.13;75.99
56831;BME280;42713;42.676;23.352;2022-12-07T03:30:26;94674.94;;;6.11;76.20
56831;BME280;42713;42.676;23.352;2022-12-07T03:33:24;94678.91;;;6.14;76.52
56831;BME280;42713;42.676;23.352;2022-12-07T03:36:06;94677.94;;;6.08;76.10
56831;BME280;42713;42.676;23.352;2022-12-07T03:38:39;94695.34;;;6.07;76.50
56831;BME280;42713;42.676;23.352;2022-12-07T03:41:30;94685.16;;;6.06;76.74
56831;BME280;42713;42.676;23.352;2022-12-07T03:43:55;94677.00;;;6.02;76.87
56831;BME280;42713;42.676;23.352;2022-12-07T03:46:42;94682.78;;;6.04;76.92
56831;BME280;42713;42.676;23.352;2022-12-07T03:49:20;94679.19;;;6.05;77.34
56831;BME280;42713;42.676;23.352;2022-12-07T03:55:04;94678.38;;;5.98;76.86
56831;BME280;42713;42.676;23.352;2022-12-07T03:57:33;94677.59;;;5.98;77.22
56831;BME280;42713;42.676;23.352;2022-12-07T04:00:00;94672.81;;;5.95;77.45
56831;BME280;42713;42.676;23.352;2022-12-07T04:02:28;94670.09;;;5.89;77.77
56831;BME280;42713;42.676;23.352;2022-12-07T04:04:55;94666.53;;;5.84;77.76
56831;BME280;42713;42.676;23.352;2022-12-07T04:07:21;94667.81;;;5.74;78.17
56831;BME280;42713;42.676;23.352;2022-12-07T04:09:47;94667.22;;;5.72;77.72
56831;BME280;42713;42.676;23.352;2022-12-07T04:12:12;94670.06;;;5.71;77.84
56831;BME280;42713;42.676;23.352;2022-12-07T04:14:38;94671.63;;;5.72;78.14
56831;BME280;42713;42.676;23.352;2022-12-07T04:17:03;94672.66;;;5.71;78.46
56831;BME280;42713;42.676;23.352;2022-12-07T04:19:31;94664.63;;;5.72;78.47
56831;BME280;42713;42.676;23.352;2022-12-07T04:21:57;94658.66;;;5.72;77.94
56831;BME280;42713;42.676;23.352;2022-12-07T04:24:24;94667.00;;;5.74;78.11
56831;BME280;42713;42.676;23.352;2022-12-07T04:26:50;94666.44;;;5.72;78.18
56831;BME280;42713;42.676;23.352;2022-12-07T04:29:17;94676.03;;;5.71;77.57
56831;BME280;42713;42.676;23.352;2022-12-07T04:31:43;94677.47;;;5.67;77.89
56831;BME280;42713;42.676;23.352;2022-12-07T04:34:09;94673.84;;;5.68;78.20
56831;BME280;42713;42.676;23.352;2022-12-07T04:36:35;94672.47;;;5.66;78.06
56831;BME280;42713;42.676;23.352;2022-12-07T04:39:01;94672.47;;;5.66;78.30
56831;BME280;42713;42.676;23.352;2022-12-07T04:41:27;94675.88;;;5.66;77.99
56831;BME280;42713;42.676;23.352;2022-12-07T04:43:57;94670.88;;;5.65;78.06
56831;BME280;42713;42.676;23.352;2022-12-07T04:46:23;94672.47;;;5.66;78.38
56831;BME280;42713;42.676;23.352;2022-12-07T04:48:50;94683.31;;;5.63;78.50
56831;BME280;42713;42.676;23.352;2022-12-07T04:51:20;94684.69;;;5.65;78.39
56831;BME280;42713;42.676;23.352;2022-12-07T04:53:46;94679.13;;;5.61;78.03
56831;BME280;42713;42.676;23.352;2022-12-07T04:56:14;94670.13;;;5.57;77.94
56831;BME280;42713;42.676;23.352;2022-12-07T04:58:41;94680.50;;;5.64;78.47
56831;BME280;42713;42.676;23.352;2022-12-07T05:01:06;94681.06;;;5.66;78.38
56831;BME280;42713;42.676;23.352;2022-12-07T05:03:32;94675.88;;;5.66;77.66
56831;BME280;42713;42.676;23.352;2022-12-07T05:05:57;94681.06;;;5.66;78.03
56831;BME280;42713;42.676;23.352;2022-12-07T05:08:23;94680.50;;;5.64;77.83
56831;BME280;42713;42.676;23.352;2022-12-07T05:10:49;94679.53;;;5.58;77.15
56831;BME280;42713;42.676;23.352;2022-12-07T05:13:15;94687.72;;;5.55;77.54
56831;BME280;42713;42.676;23.352;2022-12-07T05:15:40;94689.97;;;5.52;77.98
56831;BME280;42713;42.676;23.352;2022-12-07T05:18:07;94676.97;;;5.52;77.80
56831;BME280;42713;42.676;23.352;2022-12-07T05:20:34;94678.97;;;5.50;78.27
56831;BME280;42713;42.676;23.352;2022-12-07T05:22:59;94687.22;;;5.47;79.11
56831;BME280;42713;42.676;23.352;2022-12-07T05:25:25;94687.41;;;5.45;79.15
56831;BME280;42713;42.676;23.352;2022-12-07T05:27:50;94671.09;;;5.38;78.92
56831;BME280;42713;42.676;23.352;2022-12-07T05:30:16;94680.84;;;5.42;79.20
56831;BME280;42713;42.676;23.352;2022-12-07T05:32:41;94686.84;;;5.43;78.89
56831;BME280;42713;42.676;23.352;2022-12-07T05:35:07;94684.03;;;5.44;79.14
56831;BME280;42713;42.676;23.352;2022-12-07T05:37:42;94683.03;;;5.45;78.25
56831;BME280;42713;42.676;23.352;2022-12-07T05:40:09;94678.03;;;5.44;78.33
56831;BME280;42713;42.676;23.352;2022-12-07T05:42:34;94676.47;;;5.43;78.98
56831;BME280;42713;42.676;23.352;2022-12-07T05:45:00;94676.81;;;5.47;78.80
56831;BME280;42713;42.676;23.352;2022-12-07T05:47:25;94676.00;;;5.46;79.39
56831;BME280;42713;42.676;23.352;2022-12-07T05:49:50;94680.06;;;5.42;79.81
56831;BME280;42713;42.676;23.352;2022-12-07T05:52:17;94670.22;;;5.44;78.87
56831;BME280;42713;42.676;23.352;2022-12-07T05:54:42;94674.88;;;5.42;78.86
56831;BME280;42713;42.676;23.352;2022-12-07T05:57:08;94664.47;;;5.42;79.40
56831;BME280;42713;42.676;23.352;2022-12-07T05:59:33;94672.25;;;5.42;79.53
56831;BME280;42713;42.676;23.352;2022-12-07T06:02:01;94666.47;;;5.40;79.50
56831;BME280;42713;42.676;23.352;2022-12-07T06:04:30;94666.47;;;5.40;79.73
56831;BME280;42713;42.676;23.352;2022-12-07T06:06:56;94669.44;;;5.43;79.21
56831;BME280;42713;42.676;23.352;2022-12-07T06:09:23;94672.19;;;5.49;79.42
56831;BME280;42713;42.676;23.352;2022-12-07T06:11:49;94668.41;;;5.51;79.69
56831;BME280;42713;42.676;23.352;2022-12-07T06:14:33;94664.81;;;5.52;78.91
56831;BME280;42713;42.676;23.352;2022-12-07T06:16:59;94673.75;;;5.56;78.74
56831;BME280;42713;42.676;23.352;2022-12-07T06:19:24;94667.31;;;5.59;78.46
56831;BME280;42713;42.676;23.352;2022-12-07T06:21:50;94674.13;;;5.60;78.79
56831;BME280;42713;42.676;23.352;2022-12-07T06:24:16;94677.53;;;5.60;78.93
56831;BME280;42713;42.676;23.352;2022-12-07T06:26:42;94681.53;;;5.56;78.82
56831;BME280;42713;42.676;23.352;2022-12-07T06:29:08;94683.53;;;5.54;79.05
56831;BME280;42713;42.676;23.352;2022-12-07T06:31:33;94682.53;;;5.55;79.07
56831;BME280;42713;42.676;23.352;2022-12-07T06:34:00;94681.53;;;5.56;79.46
56831;BME280;42713;42.676;23.352;2022-12-07T06:36:27;94676.94;;;5.58;79.81
56831;BME280;42713;42.676;23.352;2022-12-07T06:38:53;94683.50;;;5.61;79.47
56831;BME280;42713;42.676;23.352;2022-12-07T06:41:18;94685.63;;;5.71;78.96
56831;BME280;42713;42.676;23.352;2022-12-07T06:43:44;94680.84;;;5.68;79.18
56831;BME280;42713;42.676;23.352;2022-12-07T06:46:09;94695.59;;;5.74;79.38
56831;BME280;42713;42.676;23.352;2022-12-07T06:48:35;94693.44;;;5.71;79.28
56831;BME280;42713;42.676;23.352;2022-12-07T06:51:01;94691.84;;;5.70;78.66
56831;BME280;42713;42.676;23.352;2022-12-07T06:53:26;94689.66;;;5.67;78.77
56831;BME280;42713;42.676;23.352;2022-12-07T06:55:52;94694.84;;;5.67;79.74
56831;BME280;42713;42.676;23.352;2022-12-07T06:58:18;94696.44;;;5.68;79.33
56831;BME280;42713;42.676;23.352;2022-12-07T07:00:44;94696.03;;;5.71;79.49
56831;BME280;42713;42.676;23.352;2022-12-07T07:03:09;94694.44;;;5.70;79.82
56831;BME280;42713;42.676;23.352;2022-12-07T07:05:36;94695.03;;;5.72;78.87
56831;BME280;42713;42.676;23.352;2022-12-07T07:08:02;94700.47;;;5.64;79.31
56831;BME280;42713;42.676;23.352;2022-12-07T07:10:28;94695.06;;;5.65;80.23
56831;BME280;42713;42.676;23.352;2022-12-07T07:12:53;94688.88;;;5.66;80.18
56831;BME280;42713;42.676;23.352;2022-12-07T07:15:19;94692.25;;;5.67;79.73
56831;BME280;42713;42.676;23.352;2022-12-07T07:17:44;94698.81;;;5.69;80.33
56831;BME280;42713;42.676;23.352;2022-12-07T07:20:10;94698.25;;;5.67;79.47
56831;BME280;42713;42.676;23.352;2022-12-07T07:22:36;94699.41;;;5.71;79.45
56831;BME280;42713;42.676;23.352;2022-12-07T07:25:02;94694.22;;;5.71;79.51
56831;BME280;42713;42.676;23.352;2022-12-07T07:27:27;94697.00;;;5.76;80.33
56831;BME280;42713;42.676;23.352;2022-12-07T07:29:53;94696.34;;;5.81;80.20
56831;BME280;42713;42.676;23.352;2022-12-07T07:32:18;94693.31;;;5.84;79.53
56831;BME280;42713;42.676;23.352;2022-12-07T07:34:45;94699.47;;;5.90;79.30
56831;BME280;42713;42.676;23.352;2022-12-07T07:37:10;94709.81;;;5.97;79.25
56831;BME280;42713;42.676;23.352;2022-12-07T07:39:38;94703.22;;;6.01;79.88
56831;BME280;42713;42.676;23.352;2022-12-07T07:42:04;94706.97;;;6.05;79.80
56831;BME280;42713;42.676;23.352;2022-12-07T07:44:29;94709.38;;;6.06;78.87
56831;BME280;42713;42.676;23.352;2022-12-07T07:46:55;94708.72;;;6.11;78.30
56831;BME280;42713;42.676;23.352;2022-12-07T07:49:20;94707.09;;;6.17;78.51
56831;BME280;42713;42.676;23.352;2022-12-07T07:51:46;94700.44;;;6.21;78.07
56831;BME280;42713;42.676;23.352;2022-12-07T07:54:11;94704.97;;;6.26;77.88
56831;BME280;42713;42.676;23.352;2022-12-07T07:56:37;94705.16;;;6.31;77.40
56831;BME280;42713;42.676;23.352;2022-12-07T07:59:03;94704.28;;;6.37;78.34
56831;BME280;42713;42.676;23.352;2022-12-07T08:01:28;94700.00;;;6.43;77.26
56831;BME280;42713;42.676;23.352;2022-12-07T08:03:54;94697.78;;;6.46;77.05
56831;BME280;42713;42.676;23.352;2022-12-07T08:06:19;94700.97;;;6.48;77.03
56831;BME280;42713;42.676;23.352;2022-12-07T08:08:45;94697.00;;;6.46;76.64
56831;BME280;42713;42.676;23.352;2022-12-07T08:11:11;94701.75;;;6.49;76.11
56831;BME280;42713;42.676;23.352;2022-12-07T08:13:37;94701.16;;;6.47;75.94
56831;BME280;42713;42.676;23.352;2022-12-07T08:16:08;94690.19;;;6.45;76.86
56831;BME280;42713;42.676;23.352;2022-12-07T08:18:39;94702.19;;;6.46;76.94
56831;BME280;42713;42.676;23.352;2022-12-07T08:21:11;94698.56;;;6.47;76.41
56831;BME280;42713;42.676;23.352;2022-12-07T08:23:37;94693.94;;;6.49;76.46
56831;BME280;42713;42.676;23.352;2022-12-07T08:26:05;94696.34;;;6.50;76.32
56831;BME280;42713;42.676;23.352;2022-12-07T08:28:31;94697.72;;;6.53;76.78
56831;BME280;42713;42.676;23.352;2022-12-07T08:31:10;94694.09;;;6.54;76.17
56831;BME280;42713;42.676;23.352;2022-12-07T08:33:36;94697.28;;;6.56;76.52
56831;BME280;42713;42.676;23.352;2022-12-07T08:36:04;94691.28;;;6.56;76.39
56831;BME280;42713;42.676;23.352;2022-12-07T08:38:30;94694.03;;;6.61;75.96
56831;BME280;42713;42.676;23.352;2022-12-07T08:40:57;94698.00;;;6.63;75.66
56831;BME280;42713;42.676;23.352;2022-12-07T08:43:24;94695.97;;;6.65;75.99
56831;BME280;42713;42.676;23.352;2022-12-07T08:48:46;94694.59;;;6.63;75.84
56831;BME280;42713;42.676;23.352;2022-12-07T08:51:20;94687.78;;;6.62;76.41
56831;BME280;42713;42.676;23.352;2022-12-07T08:53:50;94677.75;;;6.65;76.44
56831;BME280;42713;42.676;23.352;2022-12-07T08:56:16;94685.13;;;6.68;76.10
56831;BME280;42713;42.676;23.352;2022-12-07T08:58:42;94688.06;;;6.72;76.53
56831;BME280;42713;42.676;23.352;2022-12-07T09:01:08;94681.44;;;6.76;76.16
56831;BME280;42713;42.676;23.352;2022-12-07T09:03:34;94681.78;;;6.80;75.68
56831;BME280;42713;42.676;23.352;2022-12-07T09:06:00;94677.94;;;6.82;76.16
56831;BME280;42713;42.676;23.352;2022-12-07T09:08:30;94671.28;;;6.87;76.09
56831;BME280;42713;42.676;23.352;2022-12-07T09:10:56;94670.41;;;6.93;75.30
56831;BME280;42713;42.676;23.352;2022-12-07T09:13:22;94666.34;;;6.97;75.67
56831;BME280;42713;42.676;23.352;2022-12-07T09:15:47;94659.66;;;7.01;75.87
56831;BME280;42713;42.676;23.352;2022-12-07T09:18:13;94662.66;;;7.05;75.29
56831;BME280;42713;42.676;23.352;2022-12-07T09:20:39;94656.78;;;7.09;75.40
56831;BME280;42713;42.676;23.352;2022-12-07T09:23:07;94650.09;;;7.13;74.57
56831;BME280;42713;42.676;23.352;2022-12-07T09:25:34;94653.28;;;7.15;74.67
56831;BME280;42713;42.676;23.352;2022-12-07T09:28:00;94658.41;;;7.22;74.38
56831;BME280;42713;42.676;23.352;2022-12-07T09:30:26;94656.94;;;7.26;73.95
56831;BME280;42713;42.676;23.352;2022-12-07T09:32:58;94647.50;;;7.25;74.19
56831;BME280;42713;42.676;23.352;2022-12-07T09:35:24;94645.84;;;7.31;73.37
56831;BME280;42713;42.676;23.352;2022-12-07T09:37:50;94635.78;;;7.35;73.40
56831;BME280;42713;42.676;23.352;2022-12-07T09:40:17;94624.91;;;7.38;73.80
56831;BME280;42713;42.676;23.352;2022-12-07T09:42:48;94629.22;;;7.44;73.86
56831;BME280;42713;42.676;23.352;2022-12-07T09:45:19;94627.97;;;7.46;73.84
56831;BME280;42713;42.676;23.352;2022-12-07T09:47:46;94632.84;;;7.55;73.90
56831;BME280;42713;42.676;23.352;2022-12-07T09:50:15;94626.72;;;7.61;73.77
56831;BME280;42713;42.676;23.352;2022-12-07T09:52:43;94618.03;;;7.67;73.57
56831;BME280;42713;42.676;23.352;2022-12-07T09:55:13;94620.28;;;7.75;73.17
56831;BME280;42713;42.676;23.352;2022-12-07T09:57:39;94621.41;;;7.79;72.97
56831;BME280;42713;42.676;23.352;2022-12-07T10:00:14;94617.91;;;7.86;72.76
56831;BME280;42713;42.676;23.352;2022-12-07T10:02:46;94620.41;;;7.92;72.55
56831;BME280;42713;42.676;23.352;2022-12-07T10:05:20;94613.50;;;7.98;72.15
56831;BME280;42713;42.676;23.352;2022-12-07T10:07:47;94605.78;;;8.03;71.65
56831;BME280;42713;42.676;23.352;2022-12-07T10:10:15;94601.13;;;8.05;71.30
56831;BME280;42713;42.676;23.352;2022-12-07T10:13:17;94601.22;;;8.10;71.15
56831;BME280;42713;42.676;23.352;2022-12-07T10:15:48;94605.75;;;8.15;70.71
56831;BME280;42713;42.676;23.352;2022-12-07T10:20:47;94594.41;;;8.21;71.24
56831;BME280;42713;42.676;23.352;2022-12-07T10:23:17;94592.47;;;8.29;70.73
56831;BME280;42713;42.676;23.352;2022-12-07T10:25:46;94588.72;;;8.36;70.13
56831;BME280;42713;42.676;23.352;2022-12-07T10:28:16;94588.91;;;8.47;70.27
56831;BME280;42713;42.676;23.352;2022-12-07T10:31:01;94578.34;;;8.53;70.41
56831;BME280;42713;42.676;23.352;2022-12-07T10:33:34;94568.56;;;8.61;69.73
56831;BME280;42713;42.676;23.352;2022-12-07T10:36:01;94563.66;;;8.64;68.85
56831;BME280;42713;42.676;23.352;2022-12-07T10:38:27;94566.03;;;8.66;68.79
56831;BME280;42713;42.676;23.352;2022-12-07T10:41:04;94559.56;;;8.68;68.75
56831;BME280;42713;42.676;23.352;2022-12-07T10:43:30;94555.34;;;8.67;68.64
56831;BME280;42713;42.676;23.352;2022-12-07T10:54:38;94557.03;;;8.74;68.55
56831;BME280;42713;42.676;23.352;2022-12-07T11:00:08;94548.19;;;8.75;68.78
56831;BME280;42713;42.676;23.352;2022-12-07T11:02:45;94540.44;;;8.80;68.60
56831;BME280;42713;42.676;23.352;2022-12-07T11:05:30;94529.84;;;8.86;68.71
56831;BME280;42713;42.676;23.352;2022-12-07T11:13:42;94523.50;;;8.99;69.64
56831;BME280;42713;42.676;23.352;2022-12-07T11:16:23;94526.38;;;8.98;68.23
56831;BME280;42713;42.676;23.352;2022-12-07T11:22:02;94518.28;;;8.99;68.33
56831;BME280;42713;42.676;23.352;2022-12-07T11:30:12;94505.06;;;9.06;69.50
56831;BME280;42713;42.676;23.352;2022-12-07T11:32:51;94497.25;;;9.06;68.86
56831;BME280;42713;42.676;23.352;2022-12-07T11:36:02;94490.44;;;9.05;68.23
56831;BME280;42713;42.676;23.352;2022-12-07T11:38:37;94493.03;;;9.05;68.85
56831;BME280;42713;42.676;23.352;2022-12-07T11:41:06;94491.69;;;9.02;68.21
56831;BME280;42713;42.676;23.352;2022-12-07T11:43:49;94482.28;;;9.01;68.51
56831;BME280;42713;42.676;23.352;2022-12-07T11:46:15;94492.97;;;9.00;68.29
56831;BME280;42713;42.676;23.352;2022-12-07T11:49:43;94497.19;;;9.01;67.80
56831;BME280;42713;42.676;23.352;2022-12-07T11:51:44;94484.03;;;8.96;68.26
56831;BME280;42713;42.676;23.352;2022-12-07T11:54:32;94480.69;;;9.00;68.67
56831;BME280;42713;42.676;23.352;2022-12-07T11:57:04;94480.44;;;9.02;69.03
56831;BME280;42713;42.676;23.352;2022-12-07T11:59:38;94473.41;;;9.02;68.35
56831;BME280;42713;42.676;23.352;2022-12-07T12:02:13;94470.25;;;9.00;68.47
56831;BME280;42713;42.676;23.352;2022-12-07T12:05:01;94470.09;;;9.07;68.49
56831;BME280;42713;42.676;23.352;2022-12-07T12:07:31;94464.06;;;9.07;68.58
56831;BME280;42713;42.676;23.352;2022-12-07T12:10:24;94468.81;;;9.10;68.43
56831;BME280;42713;42.676;23.352;2022-12-07T12:13:07;94460.72;;;9.11;68.73
56831;BME280;42713;42.676;23.352;2022-12-07T12:16:11;94458.44;;;9.15;69.29
56831;BME280;42713;42.676;23.352;2022-12-07T12:21:09;94455.66;;;9.22;68.93
56831;BME280;42713;42.676;23.352;2022-12-07T12:23:45;94449.69;;;9.26;68.57
56831;BME280;42713;42.676;23.352;2022-12-07T12:26:24;94444.88;;;9.35;69.78
56831;BME280;42713;42.676;23.352;2022-12-07T12:28:55;94443.69;;;9.43;69.62
56831;BME280;42713;42.676;23.352;2022-12-07T12:33:50;94435.28;;;9.63;67.54
56831;BME280;42713;42.676;23.352;2022-12-07T12:36:20;94435.13;;;9.70;68.08
56831;BME280;42713;42.676;23.352;2022-12-07T12:44:00;94419.22;;;9.99;68.65
56831;BME280;42713;42.676;23.352;2022-12-07T12:51:41;94421.88;;;10.31;68.14
56831;BME280;42713;42.676;23.352;2022-12-07T12:54:14;94420.81;;;10.54;68.24
56831;BME280;42713;42.676;23.352;2022-12-07T13:02:28;94420.66;;;11.47;66.84
56831;BME280;42713;42.676;23.352;2022-12-07T13:05:01;94427.84;;;11.72;67.24
56831;BME280;42713;42.676;23.352;2022-12-07T13:15:53;94422.59;;;12.51;63.28
56831;BME280;42713;42.676;23.352;2022-12-07T13:18:36;94411.53;;;12.54;62.75
56831;BME280;42713;42.676;23.352;2022-12-07T13:29:16;94422.84;;;13.12;63.98
56831;BME280;42713;42.676;23.352;2022-12-07T13:31:44;94415.19;;;13.26;59.90
56831;BME280;42713;42.676;23.352;2022-12-07T13:34:46;94407.03;;;13.43;62.33
56831;BME280;42713;42.676;23.352;2022-12-07T13:37:26;94415.16;;;13.46;57.93
56831;BME280;42713;42.676;23.352;2022-12-07T13:39:55;94409.91;;;13.46;57.75
56831;BME280;42713;42.676;23.352;2022-12-07T13:44:51;94399.66;;;13.39;58.49
56831;BME280;42713;42.676;23.352;2022-12-07T13:47:37;94400.72;;;13.18;58.41
56831;BME280;42713;42.676;23.352;2022-12-07T13:52:47;94400.25;;;12.74;59.75
56831;BME280;42713;42.676;23.352;2022-12-07T13:55:16;94400.53;;;12.68;60.77
56831;BME280;42713;42.676;23.352;2022-12-07T13:57:44;94388.69;;;12.70;59.49
56831;BME280;42713;42.676;23.352;2022-12-07T14:02:56;94386.59;;;12.88;58.86
56831;BME280;42713;42.676;23.352;2022-12-07T14:05:28;94393.16;;;12.90;59.61
56831;BME280;42713;42.676;23.352;2022-12-07T14:07:55;94394.44;;;12.98;58.65
56831;BME280;42713;42.676;23.352;2022-12-07T14:10:30;94397.59;;;13.00;59.08
56831;BME280;42713;42.676;23.352;2022-12-07T14:12:57;94401.31;;;12.94;58.04
56831;BME280;42713;42.676;23.352;2022-12-07T14:15:29;94409.72;;;12.81;58.70
56831;BME280;42713;42.676;23.352;2022-12-07T14:17:56;94402.13;;;12.64;59.59
56831;BME280;42713;42.676;23.352;2022-12-07T14:22:55;94413.09;;;12.35;61.97
56831;BME280;42713;42.676;23.352;2022-12-07T14:25:25;94412.81;;;12.21;63.89
56831;BME280;42713;42.676;23.352;2022-12-07T14:27:59;94411.75;;;12.06;62.62
56831;BME280;42713;42.676;23.352;2022-12-07T14:30:31;94408.75;;;11.87;61.45
56831;BME280;42713;42.676;23.352;2022-12-07T14:33:03;94415.81;;;11.76;61.93
56831;BME280;42713;42.676;23.352;2022-12-07T14:35:30;94409.97;;;11.64;63.33
56831;BME280;42713;42.676;23.352;2022-12-07T14:37:56;94408.13;;;11.54;63.09
56831;BME280;42713;42.676;23.352;2022-12-07T14:40:27;94405.19;;;11.45;63.43
56831;BME280;42713;42.676;23.352;2022-12-07T14:43:01;94410.38;;;11.35;63.37
56831;BME280;42713;42.676;23.352;2022-12-07T14:45:27;94414.25;;;11.27;63.22
56831;BME280;42713;42.676;23.352;2022-12-07T14:47:53;94401.63;;;11.14;62.84
56831;BME280;42713;42.676;23.352;2022-12-07T14:50:20;94410.72;;;11.06;63.52
56831;BME280;42713;42.676;23.352;2022-12-07T14:52:50;94408.84;;;10.96;64.28